Dunkirk, New York
Current Conditions -  °F | °C
As of 4:53 AM on Tuesday 21 Oct 2014 (Local Time) from KDKK Reporting Station
Overcast Overcast  
Wind Chill: 52°   Ceiling: 2100
Heat Index: 52°   Visibility: 7mi
Dew Point: 49°   Wind: 8mph
Humidity: 89%   Direction: 310°NW
Pressure: 29.79"   Gusts: NA
Location:  42.49°N, 79.34°W
Report Text: KDKK 210853Z AUTO 31007KT 7SM SCT015 BKN021 OVC026 11/09 A2979 RMK AO2 SLP090 60006 T01110094 53003
Loading
Personal Weather Stations






























Interactive Weather Map New forecast layout! Learn more

10-Day Weather Forecast

Advertisements
Track Severe Weather on mobile